Colrain, Massachusetts
Current Conditions -  °F | °C
As of 11:52 AM on Tuesday 27 Jan 2015 (Local Time) from KORE Reporting Station
Haze Haze  
Wind Chill: -2°   Ceiling: 1500
Heat Index: 16°   Visibility: 1mi
Dew Point: 10°   Wind: 23mph
Humidity: 77%   Direction: 340°NNW
Pressure: 29.58"   Gusts: 32mph
Location:  42.67°N, 72.7°W
Report Text: KORE 271652Z AUTO 34020G28KT 1SM HZ VV015 M09/M12 A2958 RMK AO2 PK WND 33028/1651 SNEMM SLP028 P0000 T10891122 PWINO FZRANO $
Loading
Personal Weather Stations






























Interactive Weather Map New forecast layout! Learn more

10-Day Weather Forecast

Advertisements
Track Severe Weather on mobile